createdAt,value
2018-02-03T00:00:14.221Z,4.80
2018-02-03T00:01:16.692Z,17.13
2018-02-03T00:02:19.169Z,11.90
2018-02-03T00:03:21.686Z,5.27
2018-02-03T00:04:24.149Z,9.93
2018-02-03T00:05:26.629Z,10.33
2018-02-03T00:06:29.105Z,9.20
2018-02-03T00:07:31.566Z,15.03
2018-02-03T00:08:34.043Z,4.43
2018-02-03T00:09:36.517Z,5.53
2018-02-03T00:10:38.989Z,6.43
2018-02-03T00:11:41.444Z,2.50
2018-02-03T00:12:43.912Z,4.77
2018-02-03T00:13:46.386Z,2.50
2018-02-03T00:14:48.865Z,10.27
2018-02-03T00:15:51.349Z,10.03
2018-02-03T00:16:53.806Z,4.57
2018-02-03T00:17:56.276Z,5.80
2018-02-03T00:18:58.774Z,7.10
2018-02-03T00:20:01.245Z,4.70
2018-02-03T00:21:03.706Z,3.00
2018-02-03T00:22:06.176Z,4.23
2018-02-03T00:23:08.662Z,8.20
2018-02-03T00:24:11.152Z,5.10
2018-02-03T00:25:13.611Z,5.67
2018-02-03T00:26:16.066Z,5.97
2018-02-03T00:27:18.537Z,2.60
2018-02-03T00:28:21.031Z,5.20
2018-02-03T00:29:23.527Z,11.53
2018-02-03T00:30:25.997Z,3.87
2018-02-03T00:31:28.474Z,3.73
2018-02-03T00:32:30.953Z,6.47
2018-02-03T00:33:33.428Z,5.37
2018-02-03T00:34:35.906Z,10.63
2018-02-03T00:35:38.358Z,5.87
2018-02-03T00:36:40.823Z,9.47
2018-02-03T00:37:43.282Z,2.20
2018-02-03T00:38:45.752Z,4.33
2018-02-03T00:39:48.230Z,7.70
2018-02-03T00:40:50.687Z,5.00
2018-02-03T00:41:53.161Z,8.47
2018-02-03T00:42:55.622Z,5.33
2018-02-03T00:43:58.087Z,3.60
2018-02-03T00:45:00.575Z,7.70
2018-02-03T00:46:03.107Z,3.37
2018-02-03T00:47:05.585Z,7.53
2018-02-03T00:48:08.065Z,2.73
2018-02-03T00:49:10.537Z,3.60
2018-02-03T00:50:13.029Z,4.90
2018-02-03T00:51:15.486Z,3.30
2018-02-03T00:52:17.950Z,3.13
2018-02-03T00:53:20.426Z,9.70
2018-02-03T00:54:22.912Z,13.00
2018-02-03T00:55:25.412Z,2.30
2018-02-03T00:56:27.888Z,3.50
2018-02-03T00:57:30.364Z,3.30
2018-02-03T00:58:32.837Z,3.70
2018-02-03T00:59:35.308Z,6.87
2018-02-03T01:00:37.828Z,5.80
2018-02-03T01:01:40.300Z,3.93
2018-02-03T01:02:42.798Z,5.73
2018-02-03T01:03:45.260Z,4.07
2018-02-03T01:04:47.733Z,4.73
2018-02-03T01:05:50.224Z,6.20
2018-02-03T01:06:52.701Z,5.20
2018-02-03T01:07:55.177Z,3.70
2018-02-03T01:08:57.661Z,11.93
2018-02-03T01:10:00.119Z,4.37
2018-02-03T01:11:02.617Z,4.83
2018-02-03T01:12:05.094Z,10.57
2018-02-03T01:13:07.550Z,2.93
2018-02-03T01:14:10.045Z,4.63
2018-02-03T01:15:12.520Z,2.00
2018-02-03T01:16:15.013Z,2.80
2018-02-03T01:17:17.488Z,4.13
2018-02-03T01:18:19.972Z,5.97
2018-02-03T01:19:22.445Z,3.77
2018-02-03T01:20:24.912Z,4.00
2018-02-03T01:21:27.391Z,3.30
2018-02-03T01:22:29.860Z,6.80
2018-02-03T01:23:32.320Z,4.73
2018-02-03T01:24:34.798Z,3.70
2018-02-03T01:25:37.272Z,3.83
2018-02-03T01:26:39.754Z,2.03
2018-02-03T01:27:42.214Z,6.73
2018-02-03T01:28:44.667Z,2.80
2018-02-03T01:29:47.144Z,2.10
2018-02-03T01:30:49.616Z,5.77
2018-02-03T01:31:52.095Z,5.93
2018-02-03T01:32:54.571Z,2.73
2018-02-03T01:33:57.040Z,2.77
2018-02-03T01:34:59.497Z,5.90
2018-02-03T01:36:01.959Z,6.13
2018-02-03T01:37:04.439Z,4.23
2018-02-03T01:38:06.889Z,2.73
2018-02-03T01:39:09.351Z,3.90
2018-02-03T01:40:11.824Z,2.20
2018-02-03T01:41:14.300Z,2.90
2018-02-03T01:42:16.784Z,6.77
2018-02-03T01:43:19.257Z,4.23
2018-02-03T01:44:21.713Z,3.53
2018-02-03T01:45:24.167Z,3.43
2018-02-03T01:46:26.623Z,3.47
2018-02-03T01:49:07.910Z,4.20
2018-02-03T01:50:10.384Z,1.93
2018-02-03T01:51:12.865Z,2.60
2018-02-03T01:52:15.330Z,5.87
2018-02-03T01:53:17.799Z,3.57
2018-02-03T01:54:20.273Z,2.50
2018-02-03T01:55:22.731Z,2.13
2018-02-03T01:56:25.190Z,4.67
2018-02-03T01:57:27.655Z,7.53
2018-02-03T01:58:30.133Z,3.20
2018-02-03T01:59:32.604Z,5.90
2018-02-03T02:00:35.072Z,3.60
2018-02-03T02:01:37.604Z,12.13
2018-02-03T02:02:40.049Z,2.80
2018-02-03T02:03:42.524Z,3.67
2018-02-03T02:04:44.998Z,4.23
2018-02-03T02:05:47.454Z,2.47
2018-02-03T02:06:49.926Z,1.77
2018-02-03T02:07:52.396Z,4.30
2018-02-03T02:08:54.847Z,1.90
2018-02-03T02:09:57.307Z,2.70
2018-02-03T02:10:59.789Z,3.53
2018-02-03T02:12:02.275Z,1.53
2018-02-03T02:13:04.735Z,4.53
2018-02-03T02:14:07.198Z,2.60
2018-02-03T02:15:09.697Z,3.47
2018-02-03T02:16:12.150Z,4.40
2018-02-03T02:17:14.628Z,3.17
2018-02-03T02:18:17.087Z,4.30
2018-02-03T02:19:19.564Z,4.33
2018-02-03T02:20:22.041Z,2.90
2018-02-03T02:21:24.513Z,4.33
2018-02-03T02:22:26.985Z,3.80
2018-02-03T02:23:29.438Z,7.50
2018-02-03T02:24:31.890Z,9.23
2018-02-03T02:25:34.346Z,5.00
2018-02-03T02:26:36.821Z,2.93
2018-02-03T02:27:39.274Z,3.67
2018-02-03T02:28:41.761Z,4.10
2018-02-03T02:29:44.290Z,3.00
2018-02-03T02:30:46.722Z,6.53
2018-02-03T02:31:49.198Z,7.77
2018-02-03T02:32:51.654Z,3.50
2018-02-03T02:33:54.128Z,5.07
2018-02-03T02:34:56.616Z,4.67
2018-02-03T02:35:59.074Z,3.60
2018-02-03T02:37:01.545Z,4.87
2018-02-03T02:38:04.084Z,2.53
2018-02-03T02:39:06.494Z,4.87
2018-02-03T02:40:08.956Z,9.70
2018-02-03T02:41:11.422Z,4.10
2018-02-03T02:42:13.894Z,4.40
2018-02-03T02:43:16.374Z,6.80
2018-02-03T02:44:18.858Z,2.10
2018-02-03T02:45:21.316Z,1.73
2018-02-03T02:46:23.784Z,1.80
2018-02-03T02:47:26.253Z,5.00
2018-02-03T02:48:28.728Z,2.93
2018-02-03T02:49:31.333Z,5.23
2018-02-03T02:50:33.814Z,9.67
2018-02-03T02:51:36.283Z,2.17
2018-02-03T02:52:38.765Z,1.47
2018-02-03T02:53:41.218Z,5.40
2018-02-03T02:54:43.698Z,6.13
2018-02-03T02:55:46.158Z,3.50
2018-02-03T02:56:48.636Z,4.57
2018-02-03T02:57:51.110Z,1.30
2018-02-03T02:58:53.586Z,1.90
2018-02-03T02:59:56.046Z,2.63
2018-02-03T03:00:58.506Z,6.10
2018-02-03T03:02:00.989Z,5.73
2018-02-03T03:03:03.465Z,1.53
2018-02-03T03:04:05.942Z,3.53
2018-02-03T03:05:08.412Z,6.57
2018-02-03T03:06:10.885Z,2.37
2018-02-03T03:07:13.351Z,1.83
2018-02-03T03:08:15.815Z,9.43
2018-02-03T03:09:18.285Z,5.20
2018-02-03T03:10:20.755Z,2.33
2018-02-03T03:11:23.245Z,1.90
2018-02-03T03:12:25.725Z,2.93
2018-02-03T03:13:28.183Z,3.87
2018-02-03T03:14:30.643Z,5.70
2018-02-03T03:15:33.119Z,3.63
2018-02-03T03:16:35.600Z,10.83
2018-02-03T03:17:38.056Z,1.27
2018-02-03T03:18:40.561Z,1.40
2018-02-03T03:19:43.030Z,3.43
2018-02-03T03:20:45.492Z,2.80
2018-02-03T03:21:47.993Z,2.10
2018-02-03T03:22:50.461Z,2.60
2018-02-03T03:23:52.945Z,1.80
2018-02-03T03:24:55.404Z,4.63
2018-02-03T03:25:57.890Z,2.57
2018-02-03T03:27:00.361Z,8.03
2018-02-03T03:28:02.845Z,2.10
2018-02-03T03:29:05.320Z,2.20
2018-02-03T03:30:07.787Z,1.00
2018-02-03T03:31:10.269Z,4.13
2018-02-03T03:32:12.727Z,1.10
2018-02-03T03:33:15.182Z,5.00
2018-02-03T03:34:17.668Z,3.07
2018-02-03T03:35:20.122Z,6.20
2018-02-03T03:36:22.594Z,7.20
2018-02-03T03:37:25.111Z,3.20
2018-02-03T03:38:27.585Z,5.23
2018-02-03T03:39:30.051Z,11.03
2018-02-03T03:40:32.506Z,3.37
2018-02-03T03:41:34.962Z,4.90
2018-02-03T03:42:37.421Z,4.50
2018-02-03T03:43:39.878Z,5.77
2018-02-03T03:44:42.334Z,3.33
2018-02-03T03:45:44.813Z,2.87
2018-02-03T03:46:47.266Z,2.60
2018-02-03T03:47:49.741Z,2.13
2018-02-03T03:48:52.194Z,3.03
2018-02-03T03:49:54.647Z,3.97
2018-02-03T03:50:57.119Z,3.60
2018-02-03T03:51:59.621Z,7.10
2018-02-03T03:53:02.079Z,1.93
2018-02-03T03:54:04.539Z,1.83
2018-02-03T03:55:07.012Z,6.33
2018-02-03T03:56:09.484Z,3.13
2018-02-03T03:57:11.977Z,6.43
2018-02-03T03:58:14.448Z,4.13
2018-02-03T03:59:16.903Z,6.53
2018-02-03T04:00:19.406Z,1.63
2018-02-03T04:01:21.920Z,2.40
2018-02-03T04:02:24.426Z,6.33
2018-02-03T04:03:26.897Z,4.23
2018-02-03T04:04:29.371Z,3.97
2018-02-03T04:05:31.840Z,5.47
2018-02-03T04:06:34.320Z,3.73
2018-02-03T04:07:36.803Z,4.60
2018-02-03T04:08:39.267Z,2.90
2018-02-03T04:09:41.776Z,5.00
2018-02-03T04:10:44.252Z,6.00
2018-02-03T04:11:46.726Z,1.43
2018-02-03T04:12:49.230Z,5.47
2018-02-03T04:13:51.700Z,6.00
2018-02-03T04:14:54.159Z,1.93
2018-02-03T04:15:56.619Z,1.17
2018-02-03T04:16:59.074Z,6.03
2018-02-03T04:18:01.573Z,12.83
2018-02-03T04:19:04.030Z,2.37
2018-02-03T04:20:06.482Z,2.67
2018-02-03T04:21:08.953Z,2.47
2018-02-03T04:22:11.411Z,2.23
2018-02-03T04:23:13.905Z,3.20
2018-02-03T04:24:16.365Z,7.73
2018-02-03T04:25:18.846Z,4.10
2018-02-03T04:26:21.322Z,3.17
2018-02-03T04:27:23.793Z,3.90
2018-02-03T04:28:26.271Z,2.10
2018-02-03T04:29:28.754Z,7.07
2018-02-03T04:30:31.249Z,3.90
2018-02-03T04:31:33.715Z,2.53
2018-02-03T04:32:36.165Z,5.60
2018-02-03T04:33:38.642Z,6.33
2018-02-03T04:34:41.094Z,7.63
2018-02-03T04:35:43.561Z,5.17
2018-02-03T04:36:46.037Z,2.03
2018-02-03T04:37:48.514Z,4.33
2018-02-03T04:38:51.005Z,1.77
2018-02-03T04:39:53.459Z,4.00
2018-02-03T04:40:55.920Z,1.17
2018-02-03T04:41:58.376Z,2.90
2018-02-03T04:43:00.834Z,6.83
2018-02-03T04:44:03.310Z,4.60
2018-02-03T04:45:05.770Z,4.13
2018-02-03T04:46:08.245Z,3.57
2018-02-03T04:47:10.718Z,3.90
2018-02-03T04:48:13.183Z,1.47
2018-02-03T04:49:15.667Z,2.03
2018-02-03T04:50:18.161Z,2.63
2018-02-03T04:51:20.614Z,3.37
2018-02-03T04:52:23.070Z,6.43
2018-02-03T04:53:25.545Z,4.70
2018-02-03T04:54:28.075Z,3.57
2018-02-03T04:55:30.549Z,3.13
2018-02-03T04:56:33.040Z,3.63
2018-02-03T04:57:35.494Z,2.27
2018-02-03T04:58:37.950Z,4.20
2018-02-03T04:59:40.442Z,2.37
2018-02-03T05:00:42.933Z,5.23
2018-02-03T05:01:45.404Z,4.40
2018-02-03T05:02:47.901Z,5.50
2018-02-03T05:03:50.362Z,2.80
2018-02-03T05:04:52.850Z,3.60
2018-02-03T05:05:55.388Z,5.27
2018-02-03T05:06:57.872Z,4.40
2018-02-03T05:08:00.353Z,5.37
2018-02-03T05:09:02.806Z,5.63
2018-02-03T05:10:05.304Z,2.10
2018-02-03T05:11:07.763Z,6.03
2018-02-03T05:12:10.218Z,3.13
2018-02-03T05:13:12.717Z,4.50
2018-02-03T05:14:15.197Z,7.90
2018-02-03T05:15:17.688Z,5.70
2018-02-03T05:16:20.169Z,6.97
2018-02-03T05:17:22.678Z,3.90
2018-02-03T05:18:25.176Z,4.47
2018-02-03T05:19:27.642Z,7.07
2018-02-03T05:20:30.126Z,5.47
2018-02-03T05:21:32.582Z,1.97
2018-02-03T05:22:35.063Z,2.13
2018-02-03T05:23:37.537Z,2.40
2018-02-03T05:24:40.013Z,7.40
2018-02-03T05:25:42.508Z,4.30
2018-02-03T05:26:44.962Z,3.33
2018-02-03T05:27:47.437Z,8.10
2018-02-03T05:28:49.903Z,2.30
2018-02-03T05:29:52.373Z,2.20
2018-02-03T05:30:54.864Z,4.00
2018-02-03T05:31:57.333Z,6.57
2018-02-03T05:32:59.794Z,7.80
2018-02-03T05:34:02.246Z,3.17
2018-02-03T05:35:04.721Z,13.00
2018-02-03T05:36:07.237Z,4.23
2018-02-03T05:37:09.708Z,8.03
2018-02-03T05:38:12.165Z,1.97
2018-02-03T05:39:14.633Z,2.90
2018-02-03T05:40:17.091Z,3.87
2018-02-03T05:41:19.581Z,5.73
2018-02-03T05:42:22.034Z,13.53
2018-02-03T05:43:24.514Z,5.40
2018-02-03T05:44:29.589Z,3.30
2018-02-03T05:45:32.073Z,5.60
2018-02-03T05:46:34.573Z,2.83
2018-02-03T05:47:37.052Z,4.00
2018-02-03T05:48:39.515Z,2.90
2018-02-03T05:49:41.971Z,6.90
2018-02-03T05:50:44.435Z,5.07
2018-02-03T05:51:46.890Z,2.17
2018-02-03T05:52:49.361Z,3.83
2018-02-03T05:53:51.823Z,10.90
2018-02-03T05:54:54.296Z,10.90
2018-02-03T05:55:56.758Z,10.40
2018-02-03T05:56:59.213Z,4.40
2018-02-03T05:58:01.684Z,5.40
2018-02-03T05:59:04.157Z,2.50
2018-02-03T06:00:06.626Z,6.40
2018-02-03T06:01:09.101Z,5.33
2018-02-03T06:02:11.579Z,2.07
2018-02-03T06:03:14.108Z,5.50
2018-02-03T06:04:16.583Z,7.40
2018-02-03T06:05:19.045Z,3.67
2018-02-03T06:06:21.512Z,7.10
2018-02-03T06:07:23.985Z,5.07
2018-02-03T06:08:26.457Z,8.20
2018-02-03T06:09:28.933Z,3.47
2018-02-03T06:10:31.403Z,9.20
2018-02-03T06:11:33.858Z,6.03
2018-02-03T06:12:36.329Z,9.93
2018-02-03T06:13:38.792Z,3.93
2018-02-03T06:14:41.246Z,4.70
2018-02-03T06:15:43.720Z,5.37
2018-02-03T06:16:46.174Z,5.50
2018-02-03T06:17:48.626Z,6.70
2018-02-03T06:18:51.083Z,3.43
2018-02-03T06:19:53.543Z,5.03
2018-02-03T06:20:56.016Z,4.27
2018-02-03T06:21:58.470Z,9.57
2018-02-03T06:23:00.950Z,8.63
2018-02-03T06:24:03.406Z,5.00
2018-02-03T06:25:05.916Z,8.23
2018-02-03T06:26:08.357Z,10.63
2018-02-03T06:27:10.840Z,7.97
2018-02-03T06:28:13.319Z,15.83
2018-02-03T06:29:15.780Z,15.70
2018-02-03T06:30:18.257Z,10.83
2018-02-03T06:31:20.715Z,16.03
2018-02-03T06:32:23.170Z,4.97
2018-02-03T06:33:25.649Z,19.40
2018-02-03T06:34:28.110Z,12.33
2018-02-03T06:35:30.583Z,27.23
2018-02-03T06:36:33.046Z,16.17
2018-02-03T06:37:35.654Z,11.60
2018-02-03T06:38:38.114Z,7.00
2018-02-03T06:39:40.578Z,7.23
2018-02-03T06:40:43.051Z,8.00
2018-02-03T06:41:45.525Z,8.87
2018-02-03T06:42:47.996Z,14.20
2018-02-03T06:43:50.477Z,7.57
2018-02-03T06:44:52.938Z,3.17
2018-02-03T06:45:55.391Z,3.50
2018-02-03T06:46:57.860Z,10.90
2018-02-03T06:48:00.326Z,12.57
2018-02-03T06:49:02.800Z,8.90
2018-02-03T06:50:05.277Z,3.77
2018-02-03T06:51:07.744Z,4.90
2018-02-03T06:52:10.198Z,5.50
2018-02-03T06:53:12.669Z,6.23
2018-02-03T06:54:15.145Z,9.87
2018-02-03T06:55:17.629Z,5.07
2018-02-03T06:56:20.104Z,5.80
2018-02-03T06:57:22.558Z,4.83
2018-02-03T06:58:25.037Z,10.13
2018-02-03T06:59:27.520Z,12.97
2018-02-03T07:00:29.982Z,13.30
2018-02-03T07:01:32.461Z,17.50
2018-02-03T07:02:35.022Z,6.40
2018-02-03T07:03:37.478Z,7.00
2018-02-03T07:04:39.953Z,13.27
2018-02-03T07:05:42.419Z,8.83
2018-02-03T07:06:44.891Z,15.90
2018-02-03T07:07:47.373Z,10.00
2018-02-03T07:08:49.844Z,5.47
2018-02-03T07:09:52.299Z,8.53
2018-02-03T07:10:54.776Z,8.87
2018-02-03T07:11:57.318Z,14.60
2018-02-03T07:12:59.827Z,14.20
2018-02-03T07:14:02.300Z,13.63
2018-02-03T07:15:04.773Z,9.90
2018-02-03T07:16:07.244Z,9.33
2018-02-03T07:17:09.703Z,7.93
2018-02-03T07:18:12.178Z,6.93
2018-02-03T07:19:14.652Z,8.80
2018-02-03T07:20:17.102Z,5.30
2018-02-03T07:21:19.570Z,8.63
2018-02-03T07:22:22.026Z,8.27
2018-02-03T07:23:24.508Z,8.03
2018-02-03T07:24:26.973Z,11.83
2018-02-03T07:25:29.453Z,9.57
2018-02-03T07:26:31.919Z,18.00
2018-02-03T07:27:34.405Z,9.73
2018-02-03T07:28:36.875Z,8.30
2018-02-03T07:29:40.597Z,6.17
2018-02-03T07:30:43.519Z,10.80
2018-02-03T07:31:46.002Z,13.93
2018-02-03T07:32:48.526Z,5.90
2018-02-03T07:33:50.991Z,16.20
2018-02-03T07:34:53.678Z,10.07
2018-02-03T07:35:56.327Z,9.07
2018-02-03T07:36:58.818Z,7.83
2018-02-03T07:38:01.410Z,8.23
2018-02-03T07:39:03.898Z,10.90
2018-02-03T07:40:06.358Z,8.33
2018-02-03T07:41:08.829Z,9.80
2018-02-03T07:42:11.477Z,10.00
2018-02-03T07:43:14.032Z,8.70
2018-02-03T07:44:16.517Z,10.60
2018-02-03T07:45:18.992Z,11.43
2018-02-03T07:46:21.469Z,12.57
2018-02-03T07:47:23.952Z,12.80
2018-02-03T07:48:26.421Z,11.00
2018-02-03T07:49:28.901Z,12.47
2018-02-03T07:50:31.385Z,16.33
2018-02-03T07:51:33.860Z,7.17
2018-02-03T07:52:36.341Z,7.20
2018-02-03T07:53:38.806Z,7.83
2018-02-03T07:54:41.272Z,9.33
2018-02-03T07:55:43.730Z,7.80
2018-02-03T07:56:46.209Z,6.60
2018-02-03T07:57:48.679Z,5.60
2018-02-03T07:58:51.135Z,8.73
2018-02-03T07:59:53.631Z,7.83
2018-02-03T08:00:56.095Z,8.40
2018-02-03T08:01:58.594Z,5.53
2018-02-03T08:03:01.055Z,4.70
2018-02-03T08:04:03.511Z,6.90
2018-02-03T08:05:05.976Z,13.47
2018-02-03T08:06:08.442Z,9.07
2018-02-03T08:07:10.912Z,7.47
2018-02-03T08:08:13.372Z,8.73
2018-02-03T08:09:15.838Z,10.27
2018-02-03T08:10:18.318Z,7.40
2018-02-03T08:11:20.774Z,8.63
2018-02-03T08:12:23.245Z,6.87
2018-02-03T08:13:25.718Z,8.87
2018-02-03T08:14:28.183Z,11.70
2018-02-03T08:15:30.653Z,4.90
2018-02-03T08:16:33.152Z,7.80
2018-02-03T08:17:35.638Z,6.90
2018-02-03T08:18:38.117Z,7.07
2018-02-03T08:19:40.627Z,4.80
2018-02-03T08:20:43.090Z,8.57
2018-02-03T08:21:45.554Z,10.53
2018-02-03T08:22:48.008Z,7.53
2018-02-03T08:23:50.480Z,7.83
2018-02-03T08:24:52.940Z,9.67
2018-02-03T08:25:55.425Z,12.83
2018-02-03T08:26:57.914Z,11.10
2018-02-03T08:28:00.371Z,7.53
2018-02-03T08:29:02.855Z,9.57
2018-02-03T08:30:05.372Z,13.07
2018-02-03T08:31:07.844Z,12.87
2018-02-03T08:32:10.313Z,9.17
2018-02-03T08:33:12.793Z,7.93
2018-02-03T08:34:15.289Z,13.10
2018-02-03T08:35:17.744Z,9.73
2018-02-03T08:36:20.210Z,22.40
2018-02-03T08:37:22.939Z,19.10
2018-02-03T08:38:25.787Z,11.90
2018-02-03T08:39:28.582Z,12.20
2018-02-03T08:40:31.058Z,13.60
2018-02-03T08:41:33.519Z,10.30
2018-02-03T08:42:35.974Z,8.60
2018-02-03T08:43:38.443Z,11.97
2018-02-03T08:44:40.906Z,10.53
2018-02-03T08:45:43.376Z,8.43
2018-02-03T08:46:45.834Z,8.00
2018-02-03T08:47:48.334Z,15.10
2018-02-03T08:48:50.813Z,14.43
2018-02-03T08:49:53.283Z,11.57
2018-02-03T08:50:55.848Z,11.43
2018-02-03T08:51:58.354Z,9.53
2018-02-03T08:53:00.833Z,20.43
2018-02-03T08:54:03.298Z,12.67
2018-02-03T08:55:05.773Z,9.10
2018-02-03T08:56:08.235Z,11.63
2018-02-03T08:57:10.693Z,13.53
2018-02-03T08:58:13.158Z,9.60
2018-02-03T08:59:15.625Z,17.70
2018-02-03T09:00:18.086Z,18.30
2018-02-03T09:01:20.550Z,14.80
2018-02-03T09:02:23.031Z,14.00
2018-02-03T09:03:25.516Z,15.23
2018-02-03T09:04:27.974Z,14.43
2018-02-03T09:05:30.445Z,9.33
2018-02-03T09:06:32.980Z,14.90
2018-02-03T09:07:35.456Z,12.73
2018-02-03T09:08:37.910Z,34.63
2018-02-03T09:09:40.375Z,20.53
2018-02-03T09:10:42.839Z,13.23
2018-02-03T09:11:57.199Z,15.33
2018-02-03T09:12:59.677Z,11.03
2018-02-03T09:14:02.151Z,16.10
2018-02-03T09:15:04.611Z,19.43
2018-02-03T09:16:07.079Z,24.43
2018-02-03T09:17:09.564Z,26.23
2018-02-03T09:18:12.296Z,42.27
2018-02-03T09:19:14.808Z,52.97
2018-02-03T09:20:17.299Z,51.33
2018-02-03T09:21:20.067Z,52.83
2018-02-03T09:22:22.594Z,78.37
2018-02-03T09:23:25.295Z,53.57
2018-02-03T09:24:27.818Z,50.47
2018-02-03T09:25:30.290Z,34.73
2018-02-03T09:26:32.766Z,31.83
2018-02-03T09:27:35.256Z,29.67
2018-02-03T09:28:37.738Z,28.90
2018-02-03T09:29:40.225Z,38.83
2018-02-03T09:30:42.700Z,30.30
2018-02-03T09:31:45.185Z,28.80
2018-02-03T09:32:47.661Z,26.47
2018-02-03T09:33:50.127Z,27.80
2018-02-03T09:34:52.679Z,25.63
2018-02-03T09:35:55.161Z,29.33
2018-02-03T09:36:57.695Z,23.67
2018-02-03T09:38:00.163Z,24.90
2018-02-03T09:39:02.631Z,23.60
2018-02-03T09:40:05.123Z,24.67
2018-02-03T09:41:07.590Z,25.90
2018-02-03T09:42:10.061Z,20.23
2018-02-03T09:43:12.537Z,22.80
2018-02-03T09:44:15.010Z,17.27
2018-02-03T09:45:17.495Z,21.70
2018-02-03T09:46:19.971Z,18.97
2018-02-03T09:47:22.438Z,18.20
2018-02-03T09:48:24.921Z,20.13
2018-02-03T09:49:27.391Z,17.10
2018-02-03T09:50:29.869Z,18.40
2018-02-03T09:51:32.376Z,19.13
2018-02-03T09:52:34.863Z,16.50
2018-02-03T09:53:37.348Z,18.50
2018-02-03T09:54:39.841Z,21.53
2018-02-03T09:55:42.308Z,18.73
2018-02-03T09:56:44.776Z,21.27
2018-02-03T09:57:47.258Z,16.80
2018-02-03T09:58:49.726Z,30.83
2018-02-03T09:59:52.212Z,19.60
2018-02-03T10:00:54.697Z,16.63
2018-02-03T10:01:57.172Z,16.73
2018-02-03T10:02:59.643Z,21.13
2018-02-03T10:04:02.109Z,24.23
2018-02-03T10:05:04.592Z,23.50
2018-02-03T10:06:07.058Z,19.93
2018-02-03T10:07:09.523Z,17.40
2018-02-03T10:08:11.987Z,17.63
2018-02-03T10:09:14.455Z,26.77
2018-02-03T10:10:16.923Z,23.53
2018-02-03T10:11:19.387Z,21.70
2018-02-03T10:12:21.864Z,20.03
2018-02-03T10:13:24.364Z,22.10
2018-02-03T10:14:26.822Z,17.03
2018-02-03T10:15:29.301Z,22.97
2018-02-03T10:16:31.776Z,19.00
2018-02-03T10:17:34.405Z,21.40
2018-02-03T10:18:36.986Z,23.93
2018-02-03T10:19:39.454Z,18.63
2018-02-03T10:20:41.923Z,23.47
2018-02-03T10:21:44.473Z,16.43
2018-02-03T10:22:46.935Z,19.07
2018-02-03T10:23:49.409Z,19.00
2018-02-03T10:24:51.942Z,18.90
2018-02-03T10:25:54.407Z,15.30
2018-02-03T10:26:56.887Z,18.13
2018-02-03T10:27:59.346Z,18.23
2018-02-03T10:29:01.809Z,15.80
2018-02-03T10:30:04.335Z,19.83
2018-02-03T10:31:06.819Z,14.57
2018-02-03T10:32:09.279Z,16.63
2018-02-03T10:33:11.797Z,22.53
2018-02-03T10:34:14.262Z,14.50
2018-02-03T10:35:16.728Z,19.67
2018-02-03T10:36:19.205Z,20.00
2018-02-03T10:37:21.676Z,14.57
2018-02-03T10:38:24.163Z,14.10
2018-02-03T10:39:26.631Z,15.93
2018-02-03T10:40:29.092Z,13.17
2018-02-03T10:41:31.569Z,15.90
2018-02-03T10:42:34.030Z,17.27
2018-02-03T10:43:36.510Z,17.17
2018-02-03T10:44:38.989Z,16.20
2018-02-03T10:45:41.472Z,14.87
2018-02-03T10:46:43.940Z,16.27
2018-02-03T10:47:46.515Z,15.13
2018-02-03T10:48:48.984Z,14.87
2018-02-03T10:49:51.460Z,15.83
2018-02-03T10:50:53.941Z,15.50
2018-02-03T10:51:56.429Z,15.77
2018-02-03T10:52:58.891Z,14.77
2018-02-03T10:54:01.374Z,15.10
2018-02-03T10:55:03.872Z,13.07
2018-02-03T10:56:06.331Z,16.17
2018-02-03T10:57:08.823Z,11.73
2018-02-03T10:58:11.325Z,16.03
2018-02-03T10:59:13.856Z,23.43
2018-02-03T11:00:16.334Z,13.13
2018-02-03T11:01:18.821Z,12.60
2018-02-03T11:02:21.283Z,13.20
2018-02-03T11:03:23.757Z,13.63
2018-02-03T11:04:26.281Z,13.33
2018-02-03T11:05:28.746Z,11.60
2018-02-03T11:06:31.227Z,12.80
2018-02-03T11:07:33.719Z,10.80
2018-02-03T11:08:36.204Z,16.23
2018-02-03T11:09:38.690Z,15.13
2018-02-03T11:10:41.158Z,11.17
2018-02-03T11:11:43.633Z,13.63
2018-02-03T11:12:46.183Z,12.10
2018-02-03T11:13:48.646Z,14.03
2018-02-03T11:14:51.111Z,16.80
2018-02-03T11:15:53.585Z,13.27
2018-02-03T11:16:56.044Z,14.23
2018-02-03T11:17:58.518Z,11.00
2018-02-03T11:19:00.980Z,13.50
2018-02-03T11:20:03.446Z,11.27
2018-02-03T11:21:05.921Z,15.13
2018-02-03T11:22:08.396Z,12.73
2018-02-03T11:23:10.860Z,12.67
2018-02-03T11:24:13.338Z,11.87
2018-02-03T11:25:15.799Z,11.20
2018-02-03T11:26:18.293Z,19.97
2018-02-03T11:27:20.751Z,10.20
2018-02-03T11:28:23.225Z,11.53
2018-02-03T11:29:25.695Z,11.50
2018-02-03T11:30:28.146Z,9.80
2018-02-03T11:31:30.611Z,12.40
2018-02-03T11:32:33.102Z,10.90
2018-02-03T11:33:35.577Z,12.50
2018-02-03T11:34:38.069Z,13.57
2018-02-03T11:35:40.545Z,10.50
2018-02-03T11:36:43.006Z,8.97
2018-02-03T11:37:45.481Z,8.57
2018-02-03T11:38:47.957Z,11.93
2018-02-03T11:39:50.436Z,10.37
2018-02-03T11:40:52.908Z,15.37
2018-02-03T11:41:55.371Z,16.37
2018-02-03T11:42:57.834Z,10.60
2018-02-03T11:44:00.313Z,11.13
2018-02-03T11:45:02.794Z,7.43
2018-02-03T11:46:05.273Z,9.30
2018-02-03T11:47:07.765Z,10.10
2018-02-03T11:48:10.241Z,8.07
2018-02-03T11:49:12.746Z,10.40
2018-02-03T11:50:15.206Z,10.73
2018-02-03T11:51:17.663Z,9.87
2018-02-03T11:52:20.137Z,8.17
2018-02-03T11:53:22.609Z,8.17
2018-02-03T11:54:25.077Z,8.60
2018-02-03T11:55:27.562Z,7.43
2018-02-03T11:56:30.038Z,12.17
2018-02-03T11:57:32.508Z,8.23
2018-02-03T11:58:35.122Z,11.07
2018-02-03T11:59:37.597Z,9.63
2018-02-03T12:00:40.055Z,8.83
2018-02-03T12:01:42.515Z,7.43
2018-02-03T12:02:44.996Z,8.93
2018-02-03T12:03:47.477Z,7.37
2018-02-03T12:04:49.945Z,10.90
2018-02-03T12:05:52.414Z,9.17
2018-02-03T12:06:54.875Z,6.80
2018-02-03T12:07:57.356Z,9.23
2018-02-03T12:08:59.837Z,10.87
2018-02-03T12:10:02.295Z,9.10
2018-02-03T12:11:04.759Z,10.30
2018-02-03T12:12:07.227Z,6.73
2018-02-03T12:13:09.709Z,8.10
2018-02-03T12:14:12.184Z,6.60
2018-02-03T12:15:14.702Z,10.30
2018-02-03T12:16:17.159Z,7.63
2018-02-03T12:17:19.632Z,6.83
2018-02-03T12:18:22.105Z,7.53
2018-02-03T12:19:24.563Z,8.00
2018-02-03T12:20:27.141Z,8.47
2018-02-03T12:21:29.603Z,6.57
2018-02-03T12:22:32.075Z,6.03
2018-02-03T12:23:34.548Z,9.10
2018-02-03T12:24:37.029Z,14.43
2018-02-03T12:25:39.494Z,16.37
2018-02-03T12:26:41.951Z,8.57
2018-02-03T12:27:44.424Z,10.87
2018-02-03T12:28:46.886Z,18.50
2018-02-03T12:29:49.360Z,8.43
2018-02-03T12:30:51.823Z,15.30
2018-02-03T12:31:54.296Z,7.93
2018-02-03T12:32:56.772Z,9.47
2018-02-03T12:33:59.399Z,9.70
2018-02-03T12:35:01.863Z,9.17
2018-02-03T12:36:04.359Z,8.30
2018-02-03T12:37:06.815Z,12.50
2018-02-03T12:38:09.297Z,9.03
2018-02-03T12:39:11.774Z,8.90
2018-02-03T12:40:14.576Z,6.87
2018-02-03T12:41:17.055Z,6.57
2018-02-03T12:42:19.529Z,10.57
2018-02-03T12:43:22.033Z,6.73
2018-02-03T12:44:24.491Z,6.43
2018-02-03T12:45:26.969Z,9.93
2018-02-03T12:46:29.434Z,6.53
2018-02-03T12:47:31.893Z,8.23
2018-02-03T12:48:34.365Z,11.53
2018-02-03T12:49:36.823Z,8.00
2018-02-03T12:50:39.296Z,7.80
2018-02-03T12:51:41.762Z,10.30
2018-02-03T12:52:44.225Z,12.77
2018-02-03T12:53:46.694Z,15.47
2018-02-03T12:54:49.163Z,13.00
2018-02-03T12:55:51.619Z,8.80
2018-02-03T12:56:54.094Z,12.87
2018-02-03T12:57:56.560Z,10.13
2018-02-03T12:58:59.019Z,5.53
2018-02-03T13:00:01.497Z,9.50
2018-02-03T13:01:03.977Z,10.17
2018-02-03T13:02:06.450Z,10.50
2018-02-03T13:03:08.911Z,9.67
2018-02-03T13:04:11.375Z,12.40
2018-02-03T13:05:13.900Z,10.83
2018-02-03T13:06:16.373Z,9.03
2018-02-03T13:07:18.846Z,9.20
2018-02-03T13:08:21.324Z,7.33
2018-02-03T13:09:23.824Z,7.83
2018-02-03T13:10:26.302Z,5.90
2018-02-03T13:11:28.780Z,5.73
2018-02-03T13:12:31.266Z,6.03
2018-02-03T13:13:33.763Z,8.23
2018-02-03T13:14:36.234Z,6.17
2018-02-03T13:15:38.784Z,12.23
2018-02-03T13:16:41.260Z,7.07
2018-02-03T13:17:43.715Z,8.20
2018-02-03T13:18:46.260Z,5.10
2018-02-03T13:19:48.761Z,5.60
2018-02-03T13:20:51.232Z,9.90
2018-02-03T13:21:53.716Z,5.93
2018-02-03T13:22:56.201Z,7.73
2018-02-03T13:23:58.779Z,8.73
2018-02-03T13:25:01.253Z,7.23
2018-02-03T13:26:04.182Z,6.73
2018-02-03T13:27:07.011Z,15.27
2018-02-03T13:28:09.475Z,9.13
2018-02-03T13:29:11.939Z,10.93
2018-02-03T13:30:14.399Z,12.80
2018-02-03T13:31:16.873Z,10.63
2018-02-03T13:32:19.415Z,5.50
2018-02-03T13:33:21.886Z,7.03
2018-02-03T13:34:24.369Z,11.10
2018-02-03T13:35:26.840Z,8.30
2018-02-03T13:36:29.318Z,8.97
2018-02-03T13:37:31.826Z,17.13
2018-02-03T13:38:34.292Z,12.90
2018-02-03T13:39:36.758Z,12.93
2018-02-03T13:40:39.231Z,10.83
2018-02-03T13:41:41.759Z,7.87
2018-02-03T13:42:44.218Z,18.93
2018-02-03T13:43:46.681Z,9.30